createdAt,value
2019-01-13T00:02:23.432Z,3.00
2019-01-13T00:04:50.787Z,3.40
2019-01-13T00:07:18.275Z,3.17
2019-01-13T00:09:45.783Z,3.57
2019-01-13T00:12:13.210Z,3.70
2019-01-13T00:14:40.991Z,3.27
2019-01-13T00:17:08.335Z,2.70
2019-01-13T00:19:35.794Z,3.57
2019-01-13T00:22:05.990Z,4.10
2019-01-13T00:24:33.419Z,3.20
2019-01-13T00:27:00.852Z,3.40
2019-01-13T00:29:28.319Z,3.60
2019-01-13T00:31:55.761Z,3.50
2019-01-13T00:34:23.141Z,3.40
2019-01-13T00:36:50.649Z,3.43
2019-01-13T00:39:18.085Z,3.60
2019-01-13T00:41:45.406Z,3.80
2019-01-13T00:44:12.893Z,4.33
2019-01-13T00:46:40.467Z,4.00
2019-01-13T00:49:07.862Z,5.10
2019-01-13T00:51:35.209Z,5.80
2019-01-13T00:54:02.609Z,5.73
2019-01-13T00:56:29.976Z,5.63
2019-01-13T00:58:57.419Z,5.37
2019-01-13T01:01:24.768Z,5.37
2019-01-13T01:03:52.239Z,5.43
2019-01-13T01:06:19.556Z,5.60
2019-01-13T01:08:47.013Z,5.47
2019-01-13T01:11:14.395Z,5.23
2019-01-13T01:13:41.826Z,5.27
2019-01-13T01:16:09.171Z,5.43
2019-01-13T01:18:36.592Z,5.00
2019-01-13T01:21:04.025Z,5.67
2019-01-13T01:23:31.404Z,6.07
2019-01-13T01:25:58.837Z,6.67
2019-01-13T01:28:26.239Z,6.57
2019-01-13T01:30:53.606Z,6.43
2019-01-13T01:33:25.914Z,6.07
2019-01-13T01:35:50.136Z,6.97
2019-01-13T01:38:17.484Z,6.10
2019-01-13T01:40:44.833Z,7.30
2019-01-13T01:43:12.204Z,6.43
2019-01-13T01:45:39.573Z,6.13
2019-01-13T01:48:06.917Z,6.77
2019-01-13T01:50:34.278Z,6.83
2019-01-13T01:53:02.018Z,6.73
2019-01-13T01:55:29.645Z,6.40
2019-01-13T01:57:57.040Z,7.43
2019-01-13T02:00:24.502Z,7.03
2019-01-13T02:02:51.936Z,6.00
2019-01-13T02:05:19.402Z,6.40
2019-01-13T02:07:47.127Z,5.50
2019-01-13T02:10:19.649Z,5.63
2019-01-13T02:12:47.527Z,5.63
2019-01-13T02:15:19.990Z,5.57
2019-01-13T02:17:47.349Z,6.50
2019-01-13T02:20:15.765Z,5.07
2019-01-13T02:22:43.335Z,5.10
2019-01-13T02:25:12.664Z,4.80
2019-01-13T02:27:40.188Z,4.77
2019-01-13T02:30:10.096Z,4.97
2019-01-13T02:32:37.520Z,3.67
2019-01-13T02:35:05.710Z,4.23
2019-01-13T02:37:33.249Z,3.93
2019-01-13T02:40:00.766Z,4.30
2019-01-13T02:42:28.171Z,3.60
2019-01-13T02:44:55.600Z,3.70
2019-01-13T02:47:22.979Z,3.37
2019-01-13T02:49:50.424Z,4.10
2019-01-13T02:52:17.868Z,4.70
2019-01-13T02:54:45.231Z,4.97
2019-01-13T02:57:12.671Z,4.07
2019-01-13T02:59:40.127Z,4.63
2019-01-13T03:02:07.552Z,5.07
2019-01-13T03:04:34.940Z,4.43
2019-01-13T03:07:02.389Z,4.80
2019-01-13T03:09:29.874Z,3.77
2019-01-13T03:11:57.302Z,3.93
2019-01-13T03:14:24.741Z,3.87
2019-01-13T03:16:52.188Z,4.33
2019-01-13T03:19:19.598Z,4.20
2019-01-13T03:21:47.029Z,3.63
2019-01-13T03:24:14.388Z,4.43
2019-01-13T03:26:41.794Z,4.10
2019-01-13T03:29:09.176Z,3.90
2019-01-13T03:31:36.673Z,3.27
2019-01-13T03:34:04.110Z,3.80
2019-01-13T03:36:31.558Z,3.73
2019-01-13T03:38:59.115Z,3.77
2019-01-13T03:41:26.654Z,4.33
2019-01-13T03:43:54.176Z,3.93
2019-01-13T03:46:21.530Z,4.00
2019-01-13T03:48:48.859Z,4.33
2019-01-13T03:51:16.298Z,3.87
2019-01-13T03:53:43.656Z,4.80
2019-01-13T03:56:10.990Z,5.03
2019-01-13T03:58:38.430Z,4.30
2019-01-13T04:01:06.028Z,4.23
2019-01-13T04:03:33.477Z,4.00
2019-01-13T04:06:00.898Z,3.77
2019-01-13T04:08:28.365Z,3.73
2019-01-13T04:10:55.755Z,3.60
2019-01-13T04:13:23.215Z,4.37
2019-01-13T04:16:00.673Z,4.60
2019-01-13T04:18:28.137Z,3.63
2019-01-13T04:20:55.666Z,4.27
2019-01-13T04:23:23.014Z,4.40
2019-01-13T04:25:50.347Z,3.93
2019-01-13T04:28:17.803Z,3.87
2019-01-13T04:30:45.112Z,3.70
2019-01-13T04:33:12.463Z,3.17
2019-01-13T04:35:39.923Z,3.10
2019-01-13T04:38:07.360Z,3.20
2019-01-13T04:40:34.724Z,2.83
2019-01-13T04:43:02.100Z,2.90
2019-01-13T04:45:29.452Z,3.33
2019-01-13T04:47:56.804Z,2.50
2019-01-13T04:50:24.149Z,2.83
2019-01-13T04:52:51.601Z,2.90
2019-01-13T04:55:19.033Z,2.13
2019-01-13T04:57:46.464Z,1.67
2019-01-13T05:00:15.839Z,2.20
2019-01-13T05:02:43.416Z,1.33
2019-01-13T05:05:10.844Z,2.40
2019-01-13T05:07:38.291Z,1.80
2019-01-13T05:10:08.965Z,2.23
2019-01-13T05:12:36.406Z,2.57
2019-01-13T05:15:04.467Z,2.00
2019-01-13T05:17:33.664Z,2.37
2019-01-13T05:20:01.166Z,2.17
2019-01-13T05:22:28.611Z,1.63
2019-01-13T05:24:56.041Z,2.10
2019-01-13T05:27:23.385Z,1.67
2019-01-13T05:29:50.701Z,2.30
2019-01-13T05:32:18.071Z,2.43
2019-01-13T05:34:45.399Z,1.60
2019-01-13T05:37:12.886Z,2.63
2019-01-13T05:39:40.289Z,1.73
2019-01-13T05:42:07.658Z,1.90
2019-01-13T05:44:35.120Z,1.67
2019-01-13T05:47:02.587Z,1.80
2019-01-13T05:49:30.145Z,1.70
2019-01-13T05:51:57.511Z,1.70
2019-01-13T05:54:24.982Z,1.97
2019-01-13T05:56:52.423Z,1.73
2019-01-13T05:59:19.858Z,1.87
2019-01-13T06:01:49.380Z,1.73
2019-01-13T06:04:16.655Z,1.97
2019-01-13T06:06:43.995Z,1.40
2019-01-13T06:09:11.425Z,1.23
2019-01-13T06:11:38.911Z,1.20
2019-01-13T06:14:06.355Z,1.60
2019-01-13T06:16:33.669Z,1.50
2019-01-13T06:19:01.122Z,1.40
2019-01-13T06:21:28.567Z,1.60
2019-01-13T06:23:55.987Z,1.30
2019-01-13T06:26:23.363Z,1.70
2019-01-13T06:28:50.713Z,1.50
2019-01-13T06:31:18.163Z,1.33
2019-01-13T06:33:45.488Z,1.20
2019-01-13T06:36:13.076Z,1.70
2019-01-13T06:38:40.545Z,2.23
2019-01-13T06:41:07.901Z,1.20
2019-01-13T06:43:35.359Z,1.67
2019-01-13T06:46:02.868Z,1.67
2019-01-13T06:48:30.347Z,1.30
2019-01-13T06:50:57.816Z,1.20
2019-01-13T06:53:25.275Z,1.90
2019-01-13T06:55:52.756Z,1.03
2019-01-13T06:58:20.187Z,1.47
2019-01-13T07:00:47.626Z,1.47
2019-01-13T07:03:15.112Z,1.40
2019-01-13T07:05:42.431Z,1.27
2019-01-13T07:08:09.811Z,1.97
2019-01-13T07:10:37.265Z,2.13
2019-01-13T07:13:04.752Z,1.10
2019-01-13T07:15:32.180Z,1.80
2019-01-13T07:17:59.641Z,1.50
2019-01-13T07:20:27.064Z,1.50
2019-01-13T07:22:54.404Z,1.53
2019-01-13T07:25:21.729Z,1.53
2019-01-13T07:27:49.112Z,1.30
2019-01-13T07:30:25.766Z,1.40
2019-01-13T07:32:53.406Z,1.30
2019-01-13T07:35:20.752Z,1.40
2019-01-13T07:37:48.232Z,1.33
2019-01-13T07:40:17.460Z,1.60
2019-01-13T07:42:44.930Z,1.57
2019-01-13T07:45:13.838Z,1.80
2019-01-13T07:47:41.180Z,1.47
2019-01-13T07:50:10.446Z,1.50
2019-01-13T07:52:37.898Z,1.20
2019-01-13T07:55:07.256Z,1.70
2019-01-13T07:57:34.708Z,1.30
2019-01-13T08:00:02.224Z,1.93
2019-01-13T08:02:29.591Z,1.40
2019-01-13T08:04:57.066Z,2.00
2019-01-13T08:07:24.572Z,1.20
2019-01-13T08:09:52.020Z,1.40
2019-01-13T08:12:20.810Z,2.23
2019-01-13T08:14:48.412Z,1.90
2019-01-13T08:17:15.812Z,1.30
2019-01-13T08:19:43.262Z,1.60
2019-01-13T08:22:10.709Z,1.50
2019-01-13T08:24:38.183Z,1.80
2019-01-13T08:27:05.680Z,1.63
2019-01-13T08:29:33.162Z,1.67
2019-01-13T08:32:00.616Z,1.73
2019-01-13T08:34:28.086Z,1.47
2019-01-13T08:36:55.609Z,1.97
2019-01-13T08:39:23.066Z,2.17
2019-01-13T08:41:50.508Z,4.43
2019-01-13T08:44:17.984Z,2.63
2019-01-13T08:46:45.342Z,2.30
2019-01-13T08:49:12.837Z,1.63
2019-01-13T08:51:40.436Z,1.87
2019-01-13T08:54:07.858Z,2.10
2019-01-13T08:56:35.216Z,1.40
2019-01-13T08:59:02.564Z,1.80
2019-01-13T09:01:29.991Z,1.70
2019-01-13T09:03:57.441Z,1.87
2019-01-13T09:06:24.865Z,1.50
2019-01-13T09:08:52.321Z,1.87
2019-01-13T09:11:19.698Z,1.90
2019-01-13T09:13:47.054Z,1.60
2019-01-13T09:16:14.532Z,2.07
2019-01-13T09:18:41.895Z,1.27
2019-01-13T09:21:09.364Z,1.23
2019-01-13T09:23:36.820Z,1.33
2019-01-13T09:26:04.205Z,1.40
2019-01-13T09:28:31.649Z,2.30
2019-01-13T09:30:59.138Z,1.67
2019-01-13T09:33:26.483Z,1.30
2019-01-13T09:35:53.865Z,1.83
2019-01-13T09:38:21.295Z,1.53
2019-01-13T09:40:48.704Z,2.67
2019-01-13T09:43:16.194Z,1.50
2019-01-13T09:45:43.678Z,1.73
2019-01-13T09:48:11.087Z,1.77
2019-01-13T09:50:38.551Z,1.70
2019-01-13T09:53:06.071Z,1.50
2019-01-13T09:55:33.665Z,1.20
2019-01-13T09:58:01.030Z,1.80
2019-01-13T10:00:33.575Z,1.83
2019-01-13T10:03:01.392Z,1.50
2019-01-13T10:05:28.831Z,1.80
2019-01-13T10:07:56.334Z,1.90
2019-01-13T10:10:23.825Z,1.70
2019-01-13T10:12:51.252Z,1.60
2019-01-13T10:15:19.687Z,1.50
2019-01-13T10:17:47.169Z,1.37
2019-01-13T10:20:14.817Z,1.73
2019-01-13T10:22:42.249Z,1.67
2019-01-13T10:25:10.095Z,2.33
2019-01-13T10:27:37.556Z,1.90
2019-01-13T10:30:08.663Z,2.10
2019-01-13T10:32:36.123Z,2.27
2019-01-13T10:35:04.512Z,2.07
2019-01-13T10:37:31.974Z,1.70
2019-01-13T10:39:59.340Z,2.30
2019-01-13T10:42:26.810Z,2.43
2019-01-13T10:44:54.305Z,1.83
2019-01-13T10:47:21.847Z,2.60
2019-01-13T10:49:49.220Z,2.07
2019-01-13T10:52:16.653Z,2.20
2019-01-13T10:54:44.249Z,2.50
2019-01-13T10:57:11.733Z,2.50
2019-01-13T10:59:39.177Z,2.33
2019-01-13T11:02:06.681Z,2.17
2019-01-13T11:04:34.123Z,2.50
2019-01-13T11:07:01.582Z,2.37
2019-01-13T11:09:29.026Z,2.20
2019-01-13T11:11:56.400Z,2.67
2019-01-13T11:14:23.807Z,2.20
2019-01-13T11:16:52.142Z,1.80
2019-01-13T11:19:19.492Z,2.40
2019-01-13T11:21:46.953Z,2.10
2019-01-13T11:24:14.404Z,2.63
2019-01-13T11:26:41.872Z,2.50
2019-01-13T11:29:09.376Z,2.53
2019-01-13T11:31:36.741Z,1.90
2019-01-13T11:34:04.196Z,2.03
2019-01-13T11:36:31.678Z,1.90
2019-01-13T11:38:59.212Z,2.43
2019-01-13T11:41:26.731Z,2.57
2019-01-13T11:43:54.202Z,2.57
2019-01-13T11:46:21.670Z,2.30
2019-01-13T11:48:49.167Z,2.17
2019-01-13T11:51:16.642Z,2.70
2019-01-13T11:53:44.082Z,2.57
2019-01-13T11:56:13.214Z,2.50
2019-01-13T11:58:40.775Z,2.90
2019-01-13T12:01:08.334Z,2.50
2019-01-13T12:03:35.815Z,2.70
2019-01-13T12:06:03.814Z,2.83
2019-01-13T12:08:31.307Z,2.70
2019-01-13T12:10:58.836Z,2.67
2019-01-13T12:13:26.197Z,3.17
2019-01-13T12:15:53.646Z,2.80
2019-01-13T12:18:21.092Z,3.07
2019-01-13T12:20:48.478Z,3.33
2019-01-13T12:23:15.966Z,2.50
2019-01-13T12:25:43.431Z,2.87
2019-01-13T12:28:10.841Z,3.07
2019-01-13T12:30:38.224Z,3.00
2019-01-13T12:33:05.661Z,2.73
2019-01-13T12:35:33.202Z,2.80
2019-01-13T12:38:00.670Z,2.43
2019-01-13T12:40:30.343Z,2.60
2019-01-13T12:42:57.802Z,2.33
2019-01-13T12:45:25.348Z,2.33
2019-01-13T12:47:52.998Z,1.73
2019-01-13T12:50:25.600Z,2.03
2019-01-13T12:52:53.022Z,2.53
2019-01-13T12:55:20.540Z,2.47
2019-01-13T12:57:47.999Z,2.50
2019-01-13T13:00:16.188Z,2.50
2019-01-13T13:02:43.704Z,2.80
2019-01-13T13:05:11.481Z,2.97
2019-01-13T13:07:38.936Z,2.43
2019-01-13T13:10:36.252Z,2.00
2019-01-13T13:13:04.044Z,1.57
2019-01-13T13:15:31.526Z,1.80
2019-01-13T13:17:58.954Z,2.43
2019-01-13T13:20:26.318Z,2.40
2019-01-13T13:22:54.012Z,2.70
2019-01-13T13:25:21.430Z,1.70
2019-01-13T13:27:48.888Z,2.70
2019-01-13T13:30:18.762Z,2.40
2019-01-13T13:32:46.281Z,2.43
2019-01-13T13:35:13.872Z,2.27
2019-01-13T13:37:41.515Z,2.97
2019-01-13T13:40:10.092Z,3.07
2019-01-13T13:42:37.750Z,2.53
2019-01-13T13:45:05.838Z,2.27
2019-01-13T13:47:33.312Z,2.00
2019-01-13T13:50:00.765Z,1.73
2019-01-13T13:52:28.273Z,1.93
2019-01-13T13:54:55.752Z,2.27
2019-01-13T13:57:23.091Z,1.83
2019-01-13T13:59:50.484Z,2.53
2019-01-13T14:02:17.857Z,2.60
2019-01-13T14:04:45.222Z,2.23
2019-01-13T14:07:12.719Z,2.40
2019-01-13T14:09:40.198Z,2.03
2019-01-13T14:12:07.548Z,2.30
2019-01-13T14:14:35.010Z,2.03
2019-01-13T14:17:02.439Z,2.10
2019-01-13T14:19:29.838Z,2.30
2019-01-13T14:21:57.290Z,2.27
2019-01-13T14:24:24.756Z,2.40
2019-01-13T14:26:52.205Z,2.73
2019-01-13T14:29:19.688Z,2.40
2019-01-13T14:31:47.156Z,2.20
2019-01-13T14:34:14.600Z,2.90
2019-01-13T14:36:42.092Z,2.50
2019-01-13T14:39:09.551Z,2.37
2019-01-13T14:41:36.919Z,1.93
2019-01-13T14:44:04.612Z,2.77
2019-01-13T14:46:32.152Z,2.10
2019-01-13T14:48:59.569Z,1.80
2019-01-13T14:51:27.042Z,1.87
2019-01-13T14:53:54.371Z,2.30
2019-01-13T14:56:21.826Z,2.20
2019-01-13T14:58:49.348Z,2.03
2019-01-13T15:01:16.743Z,1.97
2019-01-13T15:03:44.186Z,1.87
2019-01-13T15:06:11.676Z,2.23
2019-01-13T15:08:39.231Z,2.00
2019-01-13T15:11:06.704Z,1.70
2019-01-13T15:13:34.196Z,1.90
2019-01-13T15:16:01.758Z,2.10
2019-01-13T15:18:30.649Z,1.73
2019-01-13T15:20:58.034Z,2.47
2019-01-13T15:23:25.528Z,1.87
2019-01-13T15:25:52.995Z,1.63
2019-01-13T15:28:20.825Z,1.60
2019-01-13T15:30:48.241Z,1.93
2019-01-13T15:33:15.706Z,2.00
2019-01-13T15:35:43.226Z,1.60
2019-01-13T15:38:10.793Z,2.67
2019-01-13T15:40:38.583Z,1.60
2019-01-13T15:43:06.078Z,2.10
2019-01-13T15:45:33.550Z,1.87
2019-01-13T15:48:01.010Z,1.90
2019-01-13T15:50:29.330Z,1.97
2019-01-13T15:52:56.807Z,2.17
2019-01-13T15:55:24.341Z,1.50
2019-01-13T15:57:51.813Z,1.80
2019-01-13T16:00:21.459Z,1.47
2019-01-13T16:02:48.867Z,1.80
2019-01-13T16:05:16.340Z,1.70
2019-01-13T16:07:43.808Z,1.37
2019-01-13T16:10:14.070Z,2.03
2019-01-13T16:12:41.512Z,2.20
2019-01-13T16:15:09.612Z,2.10
2019-01-13T16:17:37.031Z,2.03
2019-01-13T16:20:08.967Z,1.90
2019-01-13T16:22:36.388Z,2.00
2019-01-13T16:25:04.439Z,1.93
2019-01-13T16:27:31.979Z,1.30
2019-01-13T16:29:59.467Z,2.27
2019-01-13T16:32:27.066Z,2.03
2019-01-13T16:34:54.640Z,1.80
2019-01-13T16:37:22.076Z,1.90
2019-01-13T16:39:49.537Z,1.83
2019-01-13T16:42:16.981Z,1.73
2019-01-13T16:44:44.560Z,2.00
2019-01-13T16:47:12.067Z,1.93
2019-01-13T16:49:39.561Z,1.87
2019-01-13T16:52:07.080Z,2.30
2019-01-13T16:54:34.539Z,2.37
2019-01-13T16:57:02.016Z,1.87
2019-01-13T16:59:29.471Z,2.10
2019-01-13T17:01:56.965Z,2.30
2019-01-13T17:04:28.718Z,2.30
2019-01-13T17:06:53.689Z,2.70
2019-01-13T17:09:21.159Z,2.77
2019-01-13T17:11:48.601Z,3.10
2019-01-13T17:14:16.110Z,2.70
2019-01-13T17:16:43.512Z,2.50
2019-01-13T17:19:10.868Z,3.17
2019-01-13T17:21:38.233Z,2.87
2019-01-13T17:24:05.761Z,3.30
2019-01-13T17:26:33.149Z,2.30
2019-01-13T17:29:00.612Z,2.60
2019-01-13T17:31:28.122Z,2.17
2019-01-13T17:33:55.578Z,2.10
2019-01-13T17:36:22.936Z,2.50
2019-01-13T17:38:50.391Z,2.13
2019-01-13T17:41:17.862Z,2.37
2019-01-13T17:43:45.287Z,2.80
2019-01-13T17:46:12.662Z,1.70
2019-01-13T17:48:40.192Z,2.00
2019-01-13T17:51:07.660Z,2.10
2019-01-13T17:53:35.140Z,2.23
2019-01-13T17:56:02.708Z,1.47
2019-01-13T17:58:30.162Z,3.00
2019-01-13T18:01:23.032Z,2.17
2019-01-13T18:03:50.367Z,2.73
2019-01-13T18:06:17.822Z,2.80
2019-01-13T18:08:45.326Z,2.33
2019-01-13T18:11:12.809Z,1.87
2019-01-13T18:13:40.205Z,2.00
2019-01-13T18:16:07.651Z,2.70
2019-01-13T18:18:35.050Z,2.00
2019-01-13T18:21:02.443Z,2.07
2019-01-13T18:23:29.910Z,2.57
2019-01-13T18:25:57.388Z,2.67
2019-01-13T18:28:24.849Z,2.30
2019-01-13T18:30:52.842Z,2.03
2019-01-13T18:33:20.340Z,2.37
2019-01-13T18:35:47.907Z,1.93
2019-01-13T18:38:15.259Z,2.40
2019-01-13T18:40:42.800Z,2.07
2019-01-13T18:43:10.271Z,2.10
2019-01-13T18:45:37.681Z,2.30
2019-01-13T18:48:05.114Z,2.00
2019-01-13T18:50:32.515Z,2.23
2019-01-13T18:53:05.985Z,2.43
2019-01-13T18:55:33.467Z,2.40
2019-01-13T18:58:00.946Z,1.60
2019-01-13T19:00:28.493Z,1.53
2019-01-13T19:02:55.933Z,1.20
2019-01-13T19:05:23.494Z,1.60
2019-01-13T19:07:50.954Z,1.60
2019-01-13T19:10:23.593Z,1.63
2019-01-13T19:12:55.832Z,2.33
2019-01-13T19:15:23.252Z,1.93
2019-01-13T19:17:52.579Z,1.57
2019-01-13T19:20:22.521Z,2.40
2019-01-13T19:22:52.947Z,1.80
2019-01-13T19:25:29.134Z,0.90
2019-01-13T19:27:56.532Z,1.60
2019-01-13T19:30:24.194Z,1.40
2019-01-13T19:32:51.746Z,1.63
2019-01-13T19:35:19.209Z,1.10
2019-01-13T19:37:46.875Z,1.00
2019-01-13T19:40:15.615Z,0.73
2019-01-13T19:42:43.093Z,0.83
2019-01-13T19:45:11.978Z,1.17
2019-01-13T19:47:39.484Z,0.80
2019-01-13T19:50:09.829Z,1.57
2019-01-13T19:52:37.305Z,0.70
2019-01-13T19:55:09.416Z,1.30
2019-01-13T19:57:40.035Z,0.80
2019-01-13T20:00:12.302Z,0.70
2019-01-13T20:02:44.044Z,0.80
2019-01-13T20:05:14.195Z,1.67
2019-01-13T20:07:41.695Z,0.80
2019-01-13T20:10:11.372Z,1.40
2019-01-13T20:12:38.962Z,1.30
2019-01-13T20:15:18.160Z,1.40
2019-01-13T20:17:45.787Z,1.20
2019-01-13T20:20:18.574Z,1.30
2019-01-13T20:22:50.305Z,1.30
2019-01-13T20:25:20.588Z,1.40
2019-01-13T20:27:48.119Z,1.33
2019-01-13T20:30:17.907Z,1.40
2019-01-13T20:32:48.429Z,1.20
2019-01-13T20:35:19.270Z,0.97
2019-01-13T20:37:45.236Z,0.93
2019-01-13T20:40:13.225Z,0.27
2019-01-13T20:42:44.139Z,1.20
2019-01-13T20:45:14.865Z,1.07
2019-01-13T20:47:43.721Z,1.33
2019-01-13T20:50:14.257Z,1.03
2019-01-13T20:52:44.066Z,1.30
2019-01-13T20:55:13.953Z,1.23
2019-01-13T20:57:43.743Z,1.20
2019-01-13T21:00:20.035Z,1.30
2019-01-13T21:02:50.079Z,1.27
2019-01-13T21:05:17.650Z,1.63
2019-01-13T21:07:47.949Z,1.33
2019-01-13T21:10:16.700Z,1.50
2019-01-13T21:12:44.205Z,1.80
2019-01-13T21:15:16.105Z,1.33
2019-01-13T21:17:43.577Z,1.70
2019-01-13T21:20:11.219Z,1.13
2019-01-13T21:22:38.677Z,1.30
2019-01-13T21:25:08.563Z,1.60
2019-01-13T21:27:36.127Z,1.30
2019-01-13T21:30:06.303Z,1.07
2019-01-13T21:32:33.674Z,1.23
2019-01-13T21:35:01.364Z,1.13
2019-01-13T21:37:28.855Z,0.83
2019-01-13T21:39:56.340Z,1.40
2019-01-13T21:42:23.864Z,0.97
2019-01-13T21:44:51.316Z,1.40
2019-01-13T21:47:18.683Z,0.80
2019-01-13T21:49:46.130Z,1.20
2019-01-13T21:52:13.573Z,1.13
2019-01-13T21:54:41.077Z,1.30
2019-01-13T21:57:08.555Z,1.47
2019-01-13T21:59:35.963Z,1.40
2019-01-13T22:02:03.501Z,1.63
2019-01-13T22:04:30.879Z,1.13
2019-01-13T22:06:58.222Z,1.47
2019-01-13T22:09:25.667Z,1.37
2019-01-13T22:11:53.125Z,1.10
2019-01-13T22:14:20.469Z,1.03
2019-01-13T22:16:47.959Z,1.80
2019-01-13T22:19:15.316Z,1.20
2019-01-13T22:21:42.789Z,1.23
2019-01-13T22:24:10.240Z,1.30
2019-01-13T22:26:37.682Z,1.60
2019-01-13T22:29:05.131Z,1.57
2019-01-13T22:31:32.620Z,1.90
2019-01-13T22:34:00.026Z,1.30
2019-01-13T22:36:27.402Z,1.73
2019-01-13T22:38:54.781Z,1.20
2019-01-13T22:41:22.214Z,0.87
2019-01-13T22:43:49.697Z,1.40
2019-01-13T22:46:17.151Z,1.13
2019-01-13T22:48:44.466Z,2.17
2019-01-13T22:51:11.809Z,1.40
2019-01-13T22:53:39.289Z,1.13
2019-01-13T22:56:06.662Z,2.00
2019-01-13T22:58:34.100Z,1.20
2019-01-13T23:01:32.882Z,1.10
2019-01-13T23:04:09.074Z,2.03
2019-01-13T23:06:36.572Z,0.90
2019-01-13T23:09:07.838Z,1.10
2019-01-13T23:11:35.211Z,1.80
2019-01-13T23:14:02.667Z,0.80
2019-01-13T23:16:30.008Z,0.80
2019-01-13T23:18:57.479Z,2.17
2019-01-13T23:21:24.923Z,1.00
2019-01-13T23:23:52.390Z,1.17
2019-01-13T23:26:19.755Z,1.17
2019-01-13T23:28:47.237Z,1.10
2019-01-13T23:31:14.670Z,1.20
2019-01-13T23:33:42.046Z,0.80
2019-01-13T23:36:09.620Z,0.90
2019-01-13T23:38:37.097Z,0.73
2019-01-13T23:41:04.532Z,1.80
2019-01-13T23:43:31.976Z,1.77
2019-01-13T23:45:59.432Z,1.07
2019-01-13T23:48:26.774Z,1.40
2019-01-13T23:50:54.219Z,2.37
2019-01-13T23:53:21.578Z,1.13
2019-01-13T23:55:49.027Z,1.83
2019-01-13T23:58:16.446Z,1.20
